AEE908 LGAV-LCLK
Flight info
| Callsign | AEE908 |
|---|---|
| Flight time | 1h 16m |
| Altitude | 37000 |
| Route | KEA UL995 RDS UM601 EVENO M601 BONEK |
| Aircraft | A21N/M-SDE3FGHIRWY/LB1 |
Departure
| Time | 2026-05-06 15:25 |
|---|---|
| Airport | Athens Eleftherios Venizelos International Airport (LGAV) |
Arrival
| Time | 2026-05-06 16:41 |
|---|---|
| Airport | Larnaca International Airport (LCLK) |
| Time | Latitude | Longitude | Altitude | Speed | Heading |
|---|---|---|---|---|---|
| 2026-05-06 14:58 | 37.93326 | 23.94583 | 316 ft | 0 kts | 308° |
| 2026-05-06 15:12 | 37.93321 | 23.94591 | 317 ft | 2 kts | 308° |
| 2026-05-06 15:13 | 37.93311 | 23.94606 | 317 ft | 2 kts | 308° |
| 2026-05-06 15:13 | 37.93302 | 23.94621 | 317 ft | 2 kts | 308° |
| 2026-05-06 15:13 | 37.93293 | 23.94636 | 317 ft | 2 kts | 308° |
| 2026-05-06 15:13 | 37.93283 | 23.94651 | 317 ft | 2 kts | 328° |
| 2026-05-06 15:14 | 37.93269 | 23.94655 | 317 ft | 2 kts | 14° |
| 2026-05-06 15:14 | 37.93261 | 23.94650 | 317 ft | 0 kts | 39° |
| 2026-05-06 15:14 | 37.93256 | 23.94646 | 316 ft | 0 kts | 37° |
| 2026-05-06 15:16 | 37.93258 | 23.94647 | 316 ft | 1 kts | 37° |
| 2026-05-06 15:16 | 37.93265 | 23.94655 | 316 ft | 1 kts | 37° |
| 2026-05-06 15:16 | 37.93284 | 23.94671 | 316 ft | 4 kts | 36° |
| 2026-05-06 15:17 | 37.93322 | 23.94706 | 316 ft | 8 kts | 36° |
| 2026-05-06 15:17 | 37.93378 | 23.94759 | 316 ft | 11 kts | 39° |
| 2026-05-06 15:17 | 37.93443 | 23.94825 | 316 ft | 11 kts | 52° |
| 2026-05-06 15:17 | 37.93420 | 23.94918 | 316 ft | 12 kts | 127° |
| 2026-05-06 15:18 | 37.93386 | 23.95012 | 316 ft | 12 kts | 73° |
| 2026-05-06 15:18 | 37.93448 | 23.95089 | 316 ft | 13 kts | 37° |
| 2026-05-06 15:18 | 37.93522 | 23.95158 | 316 ft | 13 kts | 37° |
| 2026-05-06 15:18 | 37.93604 | 23.95236 | 316 ft | 16 kts | 37° |
| 2026-05-06 15:19 | 37.93703 | 23.95330 | 316 ft | 19 kts | 37° |
| 2026-05-06 15:19 | 37.93814 | 23.95436 | 316 ft | 20 kts | 37° |
| 2026-05-06 15:19 | 37.93924 | 23.95540 | 316 ft | 19 kts | 37° |
| 2026-05-06 15:19 | 37.94032 | 23.95644 | 316 ft | 19 kts | 37° |
| 2026-05-06 15:20 | 37.94139 | 23.95746 | 316 ft | 19 kts | 37° |
| 2026-05-06 15:20 | 37.94245 | 23.95845 | 316 ft | 18 kts | 37° |
| 2026-05-06 15:20 | 37.94350 | 23.95945 | 316 ft | 18 kts | 37° |
| 2026-05-06 15:20 | 37.94453 | 23.96045 | 316 ft | 18 kts | 37° |
| 2026-05-06 15:21 | 37.94555 | 23.96142 | 316 ft | 18 kts | 37° |
| 2026-05-06 15:21 | 37.94657 | 23.96239 | 316 ft | 18 kts | 37° |
| 2026-05-06 15:21 | 37.94758 | 23.96335 | 316 ft | 18 kts | 37° |
| 2026-05-06 15:21 | 37.94858 | 23.96431 | 316 ft | 18 kts | 37° |
| 2026-05-06 15:22 | 37.94958 | 23.96526 | 315 ft | 17 kts | 37° |
| 2026-05-06 15:22 | 37.95058 | 23.96621 | 315 ft | 17 kts | 37° |
| 2026-05-06 15:22 | 37.95157 | 23.96715 | 315 ft | 17 kts | 37° |
| 2026-05-06 15:22 | 37.95256 | 23.96808 | 315 ft | 16 kts | 37° |
| 2026-05-06 15:23 | 37.95290 | 23.96909 | 315 ft | 13 kts | 118° |
| 2026-05-06 15:23 | 37.95244 | 23.96991 | 315 ft | 8 kts | 127° |
| 2026-05-06 15:23 | 37.95208 | 23.97030 | 315 ft | 6 kts | 174° |
| 2026-05-06 15:23 | 37.95166 | 23.97001 | 315 ft | 8 kts | 217° |
| 2026-05-06 15:24 | 37.95066 | 23.96905 | 315 ft | 42 kts | 217° |
| 2026-05-06 15:24 | 37.94637 | 23.96496 | 316 ft | 109 kts | 217° |
| 2026-05-06 15:24 | 37.93872 | 23.95770 | 330 ft | 161 kts | 217° |
| 2026-05-06 15:24 | 37.92924 | 23.94900 | 773 ft | 170 kts | 212° |
| 2026-05-06 15:25 | 37.91889 | 23.94238 | 1491 ft | 168 kts | 206° |
| 2026-05-06 15:25 | 37.90848 | 23.93633 | 2169 ft | 165 kts | 205° |
| 2026-05-06 15:25 | 37.89819 | 23.93032 | 2685 ft | 164 kts | 206° |
| 2026-05-06 15:25 | 37.88796 | 23.92382 | 3157 ft | 166 kts | 207° |
| 2026-05-06 15:26 | 37.87757 | 23.91686 | 3591 ft | 171 kts | 208° |
| 2026-05-06 15:26 | 37.86676 | 23.90932 | 3903 ft | 185 kts | 209° |
| 2026-05-06 15:26 | 37.85510 | 23.90105 | 4234 ft | 200 kts | 210° |
| 2026-05-06 15:26 | 37.84240 | 23.89198 | 4554 ft | 217 kts | 210° |
| 2026-05-06 15:27 | 37.82866 | 23.88216 | 4859 ft | 236 kts | 210° |
| 2026-05-06 15:27 | 37.81358 | 23.87207 | 5154 ft | 257 kts | 201° |
| 2026-05-06 15:27 | 37.79549 | 23.86950 | 5564 ft | 273 kts | 171° |
| 2026-05-06 15:27 | 37.77777 | 23.87876 | 6265 ft | 279 kts | 141° |
| 2026-05-06 15:28 | 37.76602 | 23.89791 | 7000 ft | 281 kts | 114° |
| 2026-05-06 15:28 | 37.75847 | 23.92052 | 7745 ft | 284 kts | 112° |
| 2026-05-06 15:28 | 37.75070 | 23.94341 | 8475 ft | 289 kts | 112° |
| 2026-05-06 15:28 | 37.74265 | 23.96684 | 9207 ft | 292 kts | 112° |
| 2026-05-06 15:29 | 37.73454 | 23.99029 | 9927 ft | 295 kts | 112° |
| 2026-05-06 15:29 | 37.72620 | 24.01437 | 10557 ft | 302 kts | 112° |
| 2026-05-06 15:29 | 37.71749 | 24.03927 | 10889 ft | 319 kts | 112° |
| 2026-05-06 15:29 | 37.70836 | 24.06533 | 11191 ft | 336 kts | 112° |
| 2026-05-06 15:30 | 37.69873 | 24.09280 | 11549 ft | 350 kts | 112° |
| 2026-05-06 15:30 | 37.68879 | 24.12110 | 12127 ft | 356 kts | 112° |
| 2026-05-06 15:30 | 37.67870 | 24.14981 | 12744 ft | 360 kts | 112° |
| 2026-05-06 15:30 | 37.66855 | 24.17866 | 13353 ft | 364 kts | 112° |
| 2026-05-06 15:31 | 37.65835 | 24.20768 | 13929 ft | 368 kts | 112° |
| 2026-05-06 15:31 | 37.64786 | 24.23751 | 14515 ft | 372 kts | 112° |
| 2026-05-06 15:31 | 37.63744 | 24.26711 | 15076 ft | 376 kts | 112° |
| 2026-05-06 15:32 | 37.61704 | 24.32841 | 16176 ft | 383 kts | 109° |
| 2026-05-06 15:32 | 37.60710 | 24.35986 | 16692 ft | 387 kts | 109° |
| 2026-05-06 15:32 | 37.59714 | 24.39124 | 17186 ft | 391 kts | 109° |
| 2026-05-06 15:32 | 37.58694 | 24.42320 | 17679 ft | 396 kts | 109° |
| 2026-05-06 15:33 | 37.57661 | 24.45551 | 18166 ft | 399 kts | 109° |
| 2026-05-06 15:33 | 37.56628 | 24.48774 | 18651 ft | 402 kts | 109° |
| 2026-05-06 15:33 | 37.55569 | 24.52070 | 19131 ft | 406 kts | 109° |
| 2026-05-06 15:33 | 37.54504 | 24.55378 | 19590 ft | 409 kts | 109° |
| 2026-05-06 15:34 | 37.53439 | 24.58686 | 20043 ft | 412 kts | 109° |
| 2026-05-06 15:34 | 37.52350 | 24.62066 | 20479 ft | 416 kts | 109° |
| 2026-05-06 15:34 | 37.51263 | 24.65437 | 20900 ft | 419 kts | 109° |
| 2026-05-06 15:34 | 37.50160 | 24.68853 | 21318 ft | 422 kts | 109° |
| 2026-05-06 15:35 | 37.49045 | 24.72298 | 21725 ft | 425 kts | 109° |
| 2026-05-06 15:35 | 37.47925 | 24.75760 | 22124 ft | 428 kts | 109° |
| 2026-05-06 15:35 | 37.46805 | 24.79215 | 22511 ft | 431 kts | 109° |
| 2026-05-06 15:35 | 37.45676 | 24.82694 | 22893 ft | 434 kts | 109° |
| 2026-05-06 15:36 | 37.44532 | 24.86219 | 23274 ft | 436 kts | 109° |
| 2026-05-06 15:36 | 37.43375 | 24.89783 | 23656 ft | 439 kts | 109° |
| 2026-05-06 15:36 | 37.42228 | 24.93312 | 24029 ft | 442 kts | 109° |
| 2026-05-06 15:36 | 37.41051 | 24.96925 | 24399 ft | 445 kts | 109° |
| 2026-05-06 15:37 | 37.39884 | 25.00498 | 24760 ft | 448 kts | 109° |
| 2026-05-06 15:37 | 37.38698 | 25.04123 | 25113 ft | 450 kts | 109° |
| 2026-05-06 15:37 | 37.37498 | 25.07785 | 25464 ft | 452 kts | 109° |
| 2026-05-06 15:37 | 37.36295 | 25.11451 | 25804 ft | 455 kts | 109° |
| 2026-05-06 15:38 | 37.35084 | 25.15136 | 26125 ft | 457 kts | 109° |
| 2026-05-06 15:38 | 37.33868 | 25.18834 | 26453 ft | 460 kts | 110° |
| 2026-05-06 15:38 | 37.32664 | 25.22497 | 26763 ft | 462 kts | 109° |
| 2026-05-06 15:38 | 37.31428 | 25.26249 | 27068 ft | 464 kts | 110° |
| 2026-05-06 15:39 | 37.30191 | 25.30000 | 27364 ft | 467 kts | 110° |
| 2026-05-06 15:39 | 37.28958 | 25.33733 | 27662 ft | 469 kts | 110° |
| 2026-05-06 15:39 | 37.27711 | 25.37502 | 27962 ft | 471 kts | 110° |
| 2026-05-06 15:39 | 37.26437 | 25.41347 | 28245 ft | 473 kts | 110° |
| 2026-05-06 15:40 | 37.25187 | 25.45120 | 28523 ft | 475 kts | 110° |
| 2026-05-06 15:40 | 37.23911 | 25.48960 | 28787 ft | 478 kts | 110° |
| 2026-05-06 15:40 | 37.22627 | 25.52821 | 29053 ft | 480 kts | 110° |
| 2026-05-06 15:40 | 37.21339 | 25.56678 | 29343 ft | 482 kts | 110° |
| 2026-05-06 15:41 | 37.20045 | 25.60550 | 29611 ft | 484 kts | 110° |
| 2026-05-06 15:41 | 37.18739 | 25.64454 | 29884 ft | 486 kts | 110° |
| 2026-05-06 15:41 | 37.17422 | 25.68390 | 30149 ft | 488 kts | 110° |
| 2026-05-06 15:41 | 37.16125 | 25.72266 | 30490 ft | 488 kts | 111° |
| 2026-05-06 15:42 | 37.14818 | 25.76165 | 30876 ft | 486 kts | 111° |
| 2026-05-06 15:42 | 37.13509 | 25.80064 | 31253 ft | 486 kts | 111° |
| 2026-05-06 15:42 | 37.12209 | 25.83940 | 31628 ft | 485 kts | 111° |
| 2026-05-06 15:42 | 37.10899 | 25.87834 | 32025 ft | 483 kts | 111° |
| 2026-05-06 15:43 | 37.09597 | 25.91699 | 32406 ft | 482 kts | 111° |
| 2026-05-06 15:43 | 37.08305 | 25.95531 | 32783 ft | 481 kts | 111° |
| 2026-05-06 15:43 | 37.07011 | 25.99365 | 33162 ft | 480 kts | 111° |
| 2026-05-06 15:43 | 37.05716 | 26.03193 | 33549 ft | 479 kts | 110° |
| 2026-05-06 15:44 | 37.04420 | 26.07019 | 33923 ft | 477 kts | 110° |
| 2026-05-06 15:44 | 37.03123 | 26.10849 | 34248 ft | 477 kts | 110° |
| 2026-05-06 15:44 | 37.01830 | 26.14663 | 34541 ft | 477 kts | 110° |
| 2026-05-06 15:44 | 37.00557 | 26.18417 | 34811 ft | 476 kts | 110° |
| 2026-05-06 15:45 | 36.99260 | 26.22229 | 35073 ft | 476 kts | 110° |
| 2026-05-06 15:45 | 36.97976 | 26.25997 | 35319 ft | 476 kts | 111° |
| 2026-05-06 15:45 | 36.96670 | 26.29819 | 35522 ft | 477 kts | 111° |
| 2026-05-06 15:45 | 36.95364 | 26.33632 | 35706 ft | 478 kts | 111° |
| 2026-05-06 15:46 | 36.94065 | 26.37429 | 35897 ft | 479 kts | 111° |
| 2026-05-06 15:46 | 36.92746 | 26.41283 | 36082 ft | 480 kts | 111° |
| 2026-05-06 15:46 | 36.91449 | 26.45064 | 36253 ft | 481 kts | 110° |
| 2026-05-06 15:46 | 36.90118 | 26.48941 | 36450 ft | 482 kts | 111° |
| 2026-05-06 15:47 | 36.88816 | 26.52732 | 36625 ft | 484 kts | 110° |
| 2026-05-06 15:47 | 36.87474 | 26.56625 | 36826 ft | 484 kts | 110° |
| 2026-05-06 15:47 | 36.86157 | 26.60444 | 37006 ft | 485 kts | 111° |
| 2026-05-06 15:47 | 36.84817 | 26.64323 | 37038 ft | 487 kts | 111° |
| 2026-05-06 15:48 | 36.82135 | 26.72073 | 37052 ft | 488 kts | 111° |
| 2026-05-06 15:48 | 36.79438 | 26.79834 | 37060 ft | 488 kts | 111° |
| 2026-05-06 15:49 | 36.76743 | 26.87580 | 37066 ft | 488 kts | 111° |
| 2026-05-06 15:49 | 36.74066 | 26.95268 | 37075 ft | 488 kts | 111° |
| 2026-05-06 15:50 | 36.71349 | 27.03050 | 37076 ft | 488 kts | 111° |
| 2026-05-06 15:50 | 36.68647 | 27.10767 | 37069 ft | 488 kts | 111° |
| 2026-05-06 15:51 | 36.65926 | 27.18504 | 37063 ft | 489 kts | 111° |
| 2026-05-06 15:51 | 36.63201 | 27.26227 | 37059 ft | 489 kts | 111° |
| 2026-05-06 15:52 | 36.60470 | 27.33960 | 37061 ft | 491 kts | 111° |
| 2026-05-06 15:52 | 36.57725 | 27.41716 | 37060 ft | 491 kts | 111° |
| 2026-05-06 15:53 | 36.54983 | 27.49445 | 37048 ft | 491 kts | 111° |
| 2026-05-06 15:53 | 36.52222 | 27.57217 | 37046 ft | 491 kts | 111° |
| 2026-05-06 15:54 | 36.49468 | 27.64944 | 37042 ft | 492 kts | 111° |
| 2026-05-06 15:54 | 36.46703 | 27.72679 | 37039 ft | 492 kts | 112° |
| 2026-05-06 15:55 | 36.43944 | 27.80401 | 37038 ft | 492 kts | 112° |
| 2026-05-06 15:55 | 36.41164 | 27.88179 | 37033 ft | 492 kts | 112° |
| 2026-05-06 15:56 | 36.38394 | 27.95909 | 37035 ft | 493 kts | 112° |
| 2026-05-06 15:56 | 36.35622 | 28.03629 | 37042 ft | 493 kts | 112° |
| 2026-05-06 15:57 | 36.33113 | 28.11483 | 37034 ft | 491 kts | 105° |
| 2026-05-06 15:57 | 36.31045 | 28.19563 | 37036 ft | 491 kts | 104° |
| 2026-05-06 15:58 | 36.29015 | 28.27600 | 37036 ft | 491 kts | 104° |
| 2026-05-06 15:58 | 36.26965 | 28.35620 | 37038 ft | 492 kts | 104° |
| 2026-05-06 15:59 | 36.24888 | 28.43699 | 37041 ft | 492 kts | 104° |
| 2026-05-06 15:59 | 36.22813 | 28.51738 | 37047 ft | 493 kts | 104° |
| 2026-05-06 16:00 | 36.20714 | 28.59791 | 37045 ft | 493 kts | 105° |
| 2026-05-06 16:00 | 36.18612 | 28.67841 | 37047 ft | 493 kts | 105° |
| 2026-05-06 16:01 | 36.16502 | 28.75915 | 37046 ft | 494 kts | 105° |
| 2026-05-06 16:01 | 36.14395 | 28.83943 | 37052 ft | 495 kts | 105° |
| 2026-05-06 16:02 | 36.12276 | 28.91987 | 37054 ft | 494 kts | 105° |
| 2026-05-06 16:02 | 36.10143 | 29.00072 | 37055 ft | 495 kts | 105° |
| 2026-05-06 16:03 | 36.08011 | 29.08127 | 37057 ft | 496 kts | 105° |
| 2026-05-06 16:03 | 36.05868 | 29.16199 | 37061 ft | 496 kts | 105° |
| 2026-05-06 16:04 | 36.03727 | 29.24244 | 37056 ft | 496 kts | 105° |
| 2026-05-06 16:04 | 36.01567 | 29.32339 | 37056 ft | 497 kts | 105° |
| 2026-05-06 16:05 | 35.99403 | 29.40416 | 37057 ft | 497 kts | 106° |
| 2026-05-06 16:05 | 35.97227 | 29.48524 | 37059 ft | 499 kts | 105° |
| 2026-05-06 16:06 | 35.95051 | 29.56602 | 37063 ft | 500 kts | 106° |
| 2026-05-06 16:06 | 35.92863 | 29.64730 | 37058 ft | 499 kts | 106° |
| 2026-05-06 16:07 | 35.90689 | 29.72797 | 37056 ft | 500 kts | 107° |
| 2026-05-06 16:07 | 35.88493 | 29.80934 | 37062 ft | 501 kts | 107° |
| 2026-05-06 16:08 | 35.86288 | 29.89075 | 37065 ft | 500 kts | 106° |
| 2026-05-06 16:08 | 35.84101 | 29.97134 | 37059 ft | 500 kts | 106° |
| 2026-05-06 16:09 | 35.81947 | 30.05304 | 37055 ft | 500 kts | 105° |
| 2026-05-06 16:09 | 35.79913 | 30.13441 | 37058 ft | 499 kts | 105° |
| 2026-05-06 16:10 | 35.77872 | 30.21586 | 37056 ft | 499 kts | 105° |
| 2026-05-06 16:10 | 35.75825 | 30.29673 | 37055 ft | 499 kts | 105° |
| 2026-05-06 16:11 | 35.73754 | 30.37842 | 37053 ft | 499 kts | 105° |
| 2026-05-06 16:11 | 35.71693 | 30.45937 | 37052 ft | 499 kts | 105° |
| 2026-05-06 16:12 | 35.69609 | 30.54084 | 37049 ft | 499 kts | 105° |
| 2026-05-06 16:12 | 35.67535 | 30.62178 | 37050 ft | 498 kts | 105° |
| 2026-05-06 16:13 | 35.65451 | 30.70291 | 37042 ft | 498 kts | 106° |
| 2026-05-06 16:13 | 35.63366 | 30.78384 | 37047 ft | 498 kts | 106° |
| 2026-05-06 16:14 | 35.61276 | 30.86467 | 37041 ft | 498 kts | 106° |
| 2026-05-06 16:14 | 35.59234 | 30.94517 | 37048 ft | 498 kts | 105° |
| 2026-05-06 16:15 | 35.57186 | 31.02625 | 37047 ft | 497 kts | 105° |
| 2026-05-06 16:15 | 35.55138 | 31.10703 | 37054 ft | 498 kts | 106° |
| 2026-05-06 16:16 | 35.53073 | 31.18810 | 37060 ft | 497 kts | 106° |
| 2026-05-06 16:16 | 35.51012 | 31.26869 | 37062 ft | 497 kts | 106° |
| 2026-05-06 16:17 | 35.49979 | 31.30909 | 36946 ft | 493 kts | 106° |
| 2026-05-06 16:17 | 35.48966 | 31.34855 | 36454 ft | 490 kts | 106° |
| 2026-05-06 16:17 | 35.47941 | 31.38843 | 35818 ft | 489 kts | 106° |
| 2026-05-06 16:17 | 35.46921 | 31.42807 | 35286 ft | 489 kts | 105° |
| 2026-05-06 16:18 | 35.45902 | 31.46754 | 34718 ft | 489 kts | 105° |
| 2026-05-06 16:18 | 35.44882 | 31.50708 | 34106 ft | 491 kts | 105° |
| 2026-05-06 16:18 | 35.43858 | 31.54676 | 33383 ft | 492 kts | 105° |
| 2026-05-06 16:18 | 35.42824 | 31.58677 | 32684 ft | 493 kts | 105° |
| 2026-05-06 16:19 | 35.41790 | 31.62672 | 31982 ft | 493 kts | 105° |
| 2026-05-06 16:19 | 35.40767 | 31.66613 | 31270 ft | 493 kts | 106° |
| 2026-05-06 16:19 | 35.39720 | 31.70639 | 30527 ft | 493 kts | 106° |
| 2026-05-06 16:19 | 35.38673 | 31.74663 | 29766 ft | 493 kts | 106° |
| 2026-05-06 16:20 | 35.37643 | 31.78617 | 29170 ft | 489 kts | 106° |
| 2026-05-06 16:20 | 35.36609 | 31.82575 | 28654 ft | 483 kts | 106° |
| 2026-05-06 16:20 | 35.35602 | 31.86426 | 28102 ft | 479 kts | 106° |
| 2026-05-06 16:20 | 35.34595 | 31.90271 | 27534 ft | 475 kts | 106° |
| 2026-05-06 16:21 | 35.33580 | 31.94141 | 26996 ft | 471 kts | 106° |
| 2026-05-06 16:21 | 35.32603 | 31.97873 | 26469 ft | 466 kts | 106° |
| 2026-05-06 16:21 | 35.31603 | 32.01673 | 25909 ft | 463 kts | 106° |
| 2026-05-06 16:21 | 35.30636 | 32.05344 | 25378 ft | 458 kts | 106° |
| 2026-05-06 16:22 | 35.29659 | 32.09061 | 24848 ft | 454 kts | 106° |
| 2026-05-06 16:22 | 35.28702 | 32.12712 | 24321 ft | 450 kts | 106° |
| 2026-05-06 16:22 | 35.27755 | 32.16334 | 23795 ft | 446 kts | 106° |
| 2026-05-06 16:22 | 35.26826 | 32.19885 | 23268 ft | 442 kts | 106° |
| 2026-05-06 16:23 | 35.25893 | 32.23449 | 22728 ft | 439 kts | 106° |
| 2026-05-06 16:23 | 35.24967 | 32.26974 | 22231 ft | 435 kts | 106° |
| 2026-05-06 16:23 | 35.24048 | 32.30471 | 21736 ft | 430 kts | 106° |
| 2026-05-06 16:23 | 35.23135 | 32.33945 | 21236 ft | 426 kts | 106° |
| 2026-05-06 16:24 | 35.22234 | 32.37371 | 20756 ft | 421 kts | 106° |
| 2026-05-06 16:24 | 35.21341 | 32.40754 | 20289 ft | 417 kts | 106° |
| 2026-05-06 16:24 | 35.20467 | 32.44062 | 19826 ft | 413 kts | 106° |
| 2026-05-06 16:24 | 35.19580 | 32.47418 | 19341 ft | 409 kts | 106° |
| 2026-05-06 16:25 | 35.18711 | 32.50699 | 18862 ft | 405 kts | 106° |
| 2026-05-06 16:25 | 35.17858 | 32.53921 | 18397 ft | 401 kts | 106° |
| 2026-05-06 16:25 | 35.17006 | 32.57133 | 17964 ft | 396 kts | 107° |
| 2026-05-06 16:25 | 35.16157 | 32.60329 | 17506 ft | 392 kts | 107° |
| 2026-05-06 16:26 | 35.15327 | 32.63451 | 17053 ft | 388 kts | 107° |
| 2026-05-06 16:26 | 35.14497 | 32.66563 | 16550 ft | 384 kts | 107° |
| 2026-05-06 16:26 | 35.13675 | 32.69649 | 15967 ft | 380 kts | 107° |
| 2026-05-06 16:26 | 35.12867 | 32.72678 | 15367 ft | 376 kts | 107° |
| 2026-05-06 16:27 | 35.12060 | 32.75697 | 14769 ft | 371 kts | 107° |
| 2026-05-06 16:27 | 35.11274 | 32.78637 | 14190 ft | 366 kts | 107° |
| 2026-05-06 16:27 | 35.10488 | 32.81576 | 13598 ft | 362 kts | 107° |
| 2026-05-06 16:27 | 35.09705 | 32.84495 | 13000 ft | 358 kts | 107° |
| 2026-05-06 16:28 | 35.08939 | 32.87351 | 12409 ft | 354 kts | 107° |
| 2026-05-06 16:28 | 35.08173 | 32.90196 | 11815 ft | 351 kts | 107° |
| 2026-05-06 16:28 | 35.07426 | 32.92974 | 11230 ft | 347 kts | 106° |
| 2026-05-06 16:28 | 35.06655 | 32.95752 | 10643 ft | 343 kts | 107° |
| 2026-05-06 16:29 | 35.05878 | 32.98452 | 10318 ft | 331 kts | 108° |
| 2026-05-06 16:29 | 35.05135 | 33.01015 | 10079 ft | 317 kts | 108° |
| 2026-05-06 16:29 | 35.04411 | 33.03523 | 9867 ft | 306 kts | 107° |
| 2026-05-06 16:29 | 35.03717 | 33.05934 | 9673 ft | 296 kts | 107° |
| 2026-05-06 16:30 | 35.03046 | 33.08265 | 9378 ft | 292 kts | 107° |
| 2026-05-06 16:30 | 35.02596 | 33.09832 | 9129 ft | 290 kts | 107° |
| 2026-05-06 16:30 | 35.01717 | 33.12887 | 8639 ft | 287 kts | 107° |
| 2026-05-06 16:30 | 35.01061 | 33.15165 | 8274 ft | 285 kts | 107° |
| 2026-05-06 16:31 | 35.00407 | 33.17433 | 7900 ft | 283 kts | 107° |
| 2026-05-06 16:31 | 34.99754 | 33.19698 | 7521 ft | 281 kts | 108° |
| 2026-05-06 16:31 | 34.99113 | 33.21916 | 7151 ft | 279 kts | 108° |
| 2026-05-06 16:31 | 34.98469 | 33.24143 | 6791 ft | 277 kts | 108° |
| 2026-05-06 16:32 | 34.97832 | 33.26343 | 6429 ft | 274 kts | 108° |
| 2026-05-06 16:32 | 34.97198 | 33.28534 | 6083 ft | 272 kts | 108° |
| 2026-05-06 16:32 | 34.96578 | 33.30673 | 5716 ft | 270 kts | 108° |
| 2026-05-06 16:32 | 34.95953 | 33.32824 | 5332 ft | 269 kts | 108° |
| 2026-05-06 16:33 | 34.95328 | 33.34977 | 4957 ft | 268 kts | 108° |
| 2026-05-06 16:33 | 34.94714 | 33.37089 | 4595 ft | 266 kts | 108° |
| 2026-05-06 16:33 | 34.94095 | 33.39215 | 4229 ft | 265 kts | 108° |
| 2026-05-06 16:34 | 34.92883 | 33.43375 | 3994 ft | 254 kts | 108° |
| 2026-05-06 16:34 | 34.92306 | 33.45349 | 3986 ft | 238 kts | 108° |
| 2026-05-06 16:34 | 34.91762 | 33.47210 | 3989 ft | 231 kts | 108° |
| 2026-05-06 16:34 | 34.91227 | 33.49047 | 3991 ft | 232 kts | 108° |
| 2026-05-06 16:35 | 34.90693 | 33.50876 | 3979 ft | 222 kts | 108° |
| 2026-05-06 16:35 | 34.90194 | 33.52586 | 3976 ft | 213 kts | 108° |
| 2026-05-06 16:35 | 34.89696 | 33.54289 | 4006 ft | 212 kts | 108° |
| 2026-05-06 16:35 | 34.89203 | 33.55978 | 4081 ft | 211 kts | 108° |
| 2026-05-06 16:36 | 34.88728 | 33.57603 | 3962 ft | 197 kts | 108° |
| 2026-05-06 16:36 | 34.88279 | 33.59134 | 3731 ft | 189 kts | 108° |
| 2026-05-06 16:36 | 34.87843 | 33.60625 | 3412 ft | 186 kts | 108° |
| 2026-05-06 16:36 | 34.87571 | 33.62147 | 3055 ft | 184 kts | 92° |
| 2026-05-06 16:37 | 34.87689 | 33.63683 | 2698 ft | 183 kts | 76° |
| 2026-05-06 16:37 | 34.88118 | 33.65150 | 2339 ft | 183 kts | 68° |
| 2026-05-06 16:37 | 34.88608 | 33.66569 | 2009 ft | 178 kts | 68° |
| 2026-05-06 16:37 | 34.89076 | 33.67905 | 1780 ft | 163 kts | 68° |
| 2026-05-06 16:38 | 34.89498 | 33.69119 | 1547 ft | 149 kts | 69° |
| 2026-05-06 16:38 | 34.89887 | 33.70222 | 1489 ft | 139 kts | 64° |
| 2026-05-06 16:38 | 34.90580 | 33.71010 | 1463 ft | 141 kts | 16° |
| 2026-05-06 16:38 | 34.91550 | 33.70982 | 1481 ft | 141 kts | 336° |
| 2026-05-06 16:39 | 34.92383 | 33.70361 | 1497 ft | 142 kts | 315° |
| 2026-05-06 16:39 | 34.92722 | 33.69275 | 1476 ft | 140 kts | 261° |
| 2026-05-06 16:39 | 34.92257 | 33.68284 | 1316 ft | 137 kts | 219° |
| 2026-05-06 16:39 | 34.91546 | 33.67536 | 1080 ft | 136 kts | 222° |
| 2026-05-06 16:40 | 34.90888 | 33.66721 | 852 ft | 134 kts | 224° |
| 2026-05-06 16:40 | 34.90246 | 33.65903 | 651 ft | 133 kts | 224° |
| 2026-05-06 16:40 | 34.89593 | 33.65111 | 488 ft | 132 kts | 222° |
| 2026-05-06 16:40 | 34.88944 | 33.64325 | 295 ft | 130 kts | 224° |
| 2026-05-06 16:41 | 34.88315 | 33.63550 | 95 ft | 128 kts | 224° |
| 2026-05-06 16:41 | 34.87696 | 33.62791 | 15 ft | 115 kts | 226° |
| 2026-05-06 16:41 | 34.87256 | 33.62250 | 15 ft | 66 kts | 226° |
| 2026-05-06 16:41 | 34.87050 | 33.61993 | 15 ft | 32 kts | 231° |
| 2026-05-06 16:42 | 34.86962 | 33.61763 | 15 ft | 21 kts | 255° |
| 2026-05-06 16:42 | 34.86923 | 33.61589 | 15 ft | 19 kts | 256° |
| 2026-05-06 16:42 | 34.86894 | 33.61459 | 15 ft | 13 kts | 249° |
| 2026-05-06 16:42 | 34.86904 | 33.61357 | 15 ft | 13 kts | 309° |
| 2026-05-06 16:43 | 34.86972 | 33.61276 | 15 ft | 13 kts | 315° |
| 2026-05-06 16:43 | 34.87040 | 33.61193 | 15 ft | 10 kts | 315° |
| 2026-05-06 16:43 | 34.87072 | 33.61140 | 15 ft | 7 kts | 269° |
| 2026-05-06 16:43 | 34.87051 | 33.61084 | 15 ft | 5 kts | 237° |
| 2026-05-06 16:44 | 34.87032 | 33.61050 | 15 ft | 2 kts | 234° |
| 2026-05-06 16:44 | 34.87028 | 33.61044 | 15 ft | 0 kts | 233° |